Hopkins, Missouri
Current Conditions -  °F | °C
As of 7:35 PM on Monday 24 Nov 2014 (Local Time) from KICL Reporting Station
Clear Clear  
Wind Chill: 21°   Ceiling: Unl
Heat Index: 30°   Visibility: 10mi
Dew Point: 16°   Wind: 12mph
Humidity: 55%   Direction: 310°NW
Pressure: 29.98"   Gusts: NA
Location:  40.55°N, 94.82°W
Report Text: KICL 250135Z AUTO 31010KT 10SM CLR M01/M09 A2998 RMK AO2
Loading
Personal Weather Stations






























Interactive Weather Map New forecast layout! Learn more

10-Day Weather Forecast

Advertisements
Track Severe Weather on mobile